Time;durP1;ratioP1;P1;durP2;ratioP2;P2;SDS_P1;SDS_P2;PMS_P1;PMS_P2;Temp;Humidity;BMP_temperature;BMP_pressure;BME280_temperature;BME280_humidity;BME280_pressure;Samples;Min_cycle;Max_cycle;Signal;HPM_P1;HPM_P2
2023/04/30 00:01:52;;;;;;;7.15;2.55;;;8.00;99.90;;;;;;4073912;29;20059;-85
2023/04/30 00:03:53;;;;;;;10.48;2.97;;;7.30;99.90;;;;;;4073585;29;20513;-85
2023/04/30 00:05:53;;;;;;;6.10;1.95;;;8.40;99.90;;;;;;4072096;29;20052;-85
2023/04/30 00:07:55;;;;;;;5.57;2.22;;;7.30;99.90;;;;;;4061770;29;20041;-85
2023/04/30 00:09:58;;;;;;;6.07;2.67;;;7.30;99.90;;;;;;4041747;29;20045;-85
2023/04/30 00:11:59;;;;;;;13.20;2.60;;;7.50;99.90;;;;;;4026858;29;20499;-85
2023/04/30 00:14:00;;;;;;;6.68;2.28;;;6.50;99.90;;;;;;4041166;29;20071;-86
2023/04/30 00:16:02;;;;;;;8.95;2.20;;;7.10;99.90;;;;;;4042713;29;20029;-85
2023/04/30 00:18:05;;;;;;;5.57;2.55;;;7.00;99.90;;;;;;4041750;29;20053;-85
2023/04/30 00:20:07;;;;;;;5.40;2.13;;;7.40;99.90;;;;;;4042260;29;20116;-84
2023/04/30 00:22:08;;;;;;;5.88;2.10;;;7.00;99.90;;;;;;4041159;29;20045;-84
2023/04/30 00:24:09;;;;;;;7.07;2.08;;;7.00;99.90;;;;;;4023335;29;20052;-85
2023/04/30 00:26:09;;;;;;;8.82;2.58;;;7.00;99.90;;;;;;4040961;29;20049;-84
2023/04/30 00:28:10;;;;;;;5.90;2.13;;;7.00;99.90;;;;;;4040247;29;20049;-84
2023/04/30 00:30:18;;;;;;;5.75;1.88;;;7.90;99.90;;;;;;4040881;29;20132;-85
2023/04/30 00:32:20;;;;;;;5.20;1.77;;;7.60;99.90;;;;;;4040866;29;20051;-84
2023/04/30 00:34:20;;;;;;;5.13;2.97;;;7.00;99.90;;;;;;4040560;29;20526;-85
2023/04/30 00:36:22;;;;;;;6.60;1.98;;;8.20;99.90;;;;;;4040832;29;20060;-84
2023/04/30 00:38:23;;;;;;;8.95;3.42;;;7.80;99.90;;;;;;4040477;29;20494;-85
2023/04/30 00:40:24;;;;;;;12.85;2.67;;;6.80;99.90;;;;;;4041175;29;20056;-85
2023/04/30 00:42:24;;;;;;;7.45;2.13;;;6.80;99.90;;;;;;4040832;29;20055;-84
2023/04/30 00:44:26;;;;;;;5.22;2.95;;;6.80;99.90;;;;;;4041971;29;20051;-85
2023/04/30 00:46:27;;;;;;;8.50;3.47;;;7.80;99.90;;;;;;4024935;29;20101;-85
2023/04/30 00:48:29;;;;;;;6.68;2.00;;;6.70;99.90;;;;;;4041869;29;20029;-84
2023/04/30 00:50:35;;;;;;;4.93;1.98;;;6.70;99.90;;;;;;4042209;29;20080;-84
2023/04/30 00:52:36;;;;;;;10.82;2.80;;;6.60;99.90;;;;;;4041456;29;20534;-84
2023/04/30 00:54:37;;;;;;;4.85;1.95;;;6.50;99.90;;;;;;4041067;29;20049;-84
2023/04/30 00:56:37;;;;;;;8.57;2.47;;;6.50;99.90;;;;;;4023404;29;20056;-84
2023/04/30 00:58:39;;;;;;;4.60;1.90;;;6.50;99.90;;;;;;4040208;29;20049;-84
2023/04/30 01:00:45;;;;;;;7.72;2.03;;;6.50;99.90;;;;;;4042318;29;20482;-84
2023/04/30 01:02:49;;;;;;;7.18;2.22;;;6.90;99.90;;;;;;4041746;29;20156;-84
2023/04/30 01:04:50;;;;;;;5.50;1.88;;;6.90;99.90;;;;;;4041711;29;20048;-84
2023/04/30 01:06:52;;;;;;;9.05;2.72;;;7.70;99.90;;;;;;4041922;29;20072;-85
2023/04/30 01:08:56;;;;;;;2.58;1.80;;;7.60;99.90;;;;;;4054715;29;20482;-85
2023/04/30 01:11:20;;;;;;;5.10;1.58;;;6.60;99.90;;;;;;4056988;29;20053;-85
2023/04/30 01:13:31;;;;;;;4.80;1.52;;;6.60;99.90;;;;;;4055607;29;20124;-85
2023/04/30 01:15:55;;;;;;;5.25;1.88;;;6.60;99.90;;;;;;4053495;29;20044;-85
2023/04/30 01:18:09;;;;;;;6.43;2.50;;;6.50;99.90;;;;;;4041705;29;20214;-85
2023/04/30 01:20:11;;;;;;;3.28;1.92;;;6.60;99.90;;;;;;4041670;29;20045;-85
2023/04/30 01:22:27;;;;;;;7.05;1.80;;;6.80;99.90;;;;;;4041158;29;20045;-85
2023/04/30 01:25:03;;;;;;;11.52;2.10;;;6.40;99.90;;;;;;4040383;29;20044;-85
2023/04/30 01:27:22;;;;;;;10.25;2.15;;;6.40;99.90;;;;;;4025519;29;20058;-85
2023/04/30 01:29:26;;;;;;;;;;;6.30;99.90;;;;;;4041930;29;20037;-85
2023/04/30 01:31:27;;;;;;;4.22;1.88;;;6.20;99.90;;;;;;4040883;29;19924;-85
2023/04/30 01:33:28;;;;;;;10.90;1.90;;;6.90;99.90;;;;;;4025680;29;20061;-85
2023/04/30 01:35:58;;;;;;;5.70;2.10;;;6.30;99.90;;;;;;4040748;29;20041;-85
2023/04/30 01:38:14;;;;;;;7.03;2.70;;;6.20;99.90;;;;;;4041120;29;20041;-85
2023/04/30 01:41:00;;;;;;;4.85;2.05;;;6.30;99.90;;;;;;4040038;29;20056;-85
2023/04/30 01:43:28;;;;;;;8.00;2.53;;;6.30;99.90;;;;;;3962305;30;20051;-85
2023/04/30 01:46:16;;;;;;;7.82;2.08;;;6.30;99.90;;;;;;4009452;29;20068;-85
2023/04/30 01:48:22;;;;;;;;;;;6.20;99.90;;;;;;4027203;29;20057;-85
2023/04/30 01:51:01;;;;;;;4.57;2.17;;;6.30;99.90;;;;;;4039560;29;20064;-85
2023/04/30 01:53:08;;;;;;;5.32;2.60;;;6.30;99.90;;;;;;4031705;29;20045;-85
2023/04/30 01:55:15;;;;;;;6.03;2.42;;;6.50;99.90;;;;;;4040565;29;20100;-85
2023/04/30 01:57:32;;;;;;;9.65;2.17;;;6.30;99.90;;;;;;4039645;29;20049;-85
2023/04/30 01:59:38;;;;;;;5.68;1.92;;;6.40;99.90;;;;;;4039777;29;20070;-85
2023/04/30 02:01:40;;;;;;;5.63;2.08;;;6.50;99.90;;;;;;4041512;29;20048;-85
2023/04/30 02:03:48;;;;;;;5.38;1.83;;;6.50;99.90;;;;;;4040994;29;20124;-85
2023/04/30 02:05:49;;;;;;;10.90;2.15;;;6.60;99.90;;;;;;4041829;29;20053;-85
2023/04/30 02:07:52;;;;;;;7.05;2.10;;;6.50;99.90;;;;;;4024291;29;20049;-85
2023/04/30 02:09:53;;;;;;;14.07;3.72;;;6.80;99.90;;;;;;4040948;29;20045;-84
2023/04/30 02:11:56;;;;;;;6.63;2.20;;;6.30;99.90;;;;;;4040629;29;20028;-85
2023/04/30 02:13:57;;;;;;;6.60;1.75;;;6.40;99.90;;;;;;4040710;29;20071;-85
2023/04/30 02:15:58;;;;;;;12.65;2.72;;;7.20;99.90;;;;;;4040991;29;20117;-85
2023/04/30 02:17:59;;;;;;;7.15;2.03;;;6.40;99.90;;;;;;4040803;29;20057;-84
2023/04/30 02:20:00;;;;;;;10.43;2.10;;;6.90;99.90;;;;;;4040689;29;20486;-84
2023/04/30 02:22:00;;;;;;;7.20;1.67;;;7.30;99.90;;;;;;4040496;29;20053;-84
2023/04/30 02:24:01;;;;;;;6.18;1.88;;;6.90;99.90;;;;;;4023921;29;20133;-84
2023/04/30 02:26:02;;;;;;;3.63;2.10;;;7.10;99.90;;;;;;4040505;29;20033;-84
2023/04/30 02:28:03;;;;;;;6.18;2.20;;;6.40;99.90;;;;;;4040689;29;20045;-85
2023/04/30 02:30:05;;;;;;;4.88;1.83;;;6.40;99.90;;;;;;4024760;29;20129;-84
2023/04/30 02:32:11;;;;;;;4.10;1.58;;;6.40;99.90;;;;;;4040229;29;20049;-85
2023/04/30 02:34:13;;;;;;;5.80;2.08;;;6.70;99.90;;;;;;4040454;29;20049;-85
2023/04/30 02:36:14;;;;;;;6.80;2.25;;;6.80;99.90;;;;;;4040517;29;20200;-85
2023/04/30 02:38:15;;;;;;;8.93;2.15;;;6.30;99.90;;;;;;4040937;29;20521;-84
2023/04/30 02:40:16;;;;;;;7.13;2.53;;;6.30;99.90;;;;;;4040766;29;20049;-84
2023/04/30 02:42:17;;;;;;;6.63;1.80;;;6.30;99.90;;;;;;4040576;29;20060;-85
2023/04/30 02:44:18;;;;;;;7.05;2.28;;;6.20;99.90;;;;;;4040478;29;20047;-85
2023/04/30 02:46:19;;;;;;;7.10;2.45;;;6.90;99.90;;;;;;4040275;29;20044;-85
2023/04/30 02:48:20;;;;;;;4.40;1.85;;;7.10;99.90;;;;;;4042600;29;20156;-84
2023/04/30 02:50:21;;;;;;;5.15;1.88;;;6.20;99.90;;;;;;4054427;29;20482;-84
2023/04/30 02:52:22;;;;;;;7.10;2.38;;;6.20;99.90;;;;;;4054114;29;20048;-85
2023/04/30 02:54:23;;;;;;;4.57;1.75;;;6.30;99.90;;;;;;4055031;29;20066;-85
2023/04/30 02:56:24;;;;;;;7.97;2.50;;;6.20;99.90;;;;;;4054189;29;20053;-84
2023/04/30 02:58:26;;;;;;;12.07;2.60;;;6.90;99.90;;;;;;4054670;29;20055;-85
2023/04/30 03:00:26;;;;;;;5.97;1.90;;;6.80;99.90;;;;;;4057211;29;20044;-85
2023/04/30 03:02:27;;;;;;;3.00;1.92;;;6.90;99.90;;;;;;4070369;29;20515;-85
2023/04/30 03:04:30;;;;;;;7.50;2.25;;;6.90;99.90;;;;;;4070805;29;20123;-84
2023/04/30 03:06:32;;;;;;;7.22;2.00;;;6.30;99.90;;;;;;4069919;29;20111;-85
2023/04/30 03:08:33;;;;;;;9.88;2.47;;;6.30;99.90;;;;;;4049878;29;20033;-84
2023/04/30 03:10:33;;;;;;;8.30;2.17;;;6.30;99.90;;;;;;4038159;29;20048;-84
2023/04/30 03:12:34;;;;;;;6.93;2.50;;;7.10;99.90;;;;;;4039403;29;20401;-84
2023/04/30 03:14:40;;;;;;;8.82;2.55;;;7.00;99.90;;;;;;4038519;29;20053;-84
2023/04/30 03:16:40;;;;;;;7.20;2.10;;;6.40;99.90;;;;;;4038704;29;20096;-84
2023/04/30 03:18:41;;;;;;;5.95;1.90;;;6.40;99.90;;;;;;4022767;29;20075;-85
2023/04/30 03:20:44;;;;;;;6.85;2.30;;;6.40;99.90;;;;;;4022036;29;20480;-85
2023/04/30 03:22:44;;;;;;;7.20;1.92;;;7.20;99.90;;;;;;4039321;29;20510;-84
2023/04/30 03:24:45;;;;;;;6.05;2.38;;;6.90;99.90;;;;;;4039203;29;20045;-85
2023/04/30 03:26:46;;;;;;;8.52;2.38;;;7.10;99.90;;;;;;4041824;29;20170;-85
2023/04/30 03:28:47;;;;;;;6.95;2.00;;;6.70;99.90;;;;;;4041905;29;20076;-84
2023/04/30 03:30:49;;;;;;;5.93;2.47;;;6.40;99.90;;;;;;4044266;29;20055;-85
2023/04/30 03:32:49;;;;;;;7.45;1.67;;;7.30;99.90;;;;;;4043913;29;20053;-85
2023/04/30 03:34:50;;;;;;;7.07;1.88;;;6.40;99.90;;;;;;4042579;29;20052;-85
2023/04/30 03:36:51;;;;;;;6.03;1.92;;;6.40;99.90;;;;;;4043969;29;20033;-84
2023/04/30 03:38:59;;;;;;;6.38;2.05;;;6.60;99.90;;;;;;4042991;29;20053;-85
2023/04/30 03:41:00;;;;;;;9.68;2.95;;;6.90;99.90;;;;;;4026171;29;20092;-85
2023/04/30 03:43:00;;;;;;;7.38;1.80;;;6.40;99.90;;;;;;4043722;29;20398;-85
2023/04/30 03:45:01;;;;;;;6.60;1.88;;;6.80;99.90;;;;;;4042574;29;20087;-85
2023/04/30 03:47:02;;;;;;;7.88;2.78;;;6.30;99.90;;;;;;4043458;29;20053;-85
2023/04/30 03:49:06;;;;;;;3.33;1.60;;;6.40;99.90;;;;;;4042723;29;20435;-85
2023/04/30 03:51:08;;;;;;;8.52;1.90;;;6.80;99.90;;;;;;4043539;29;20060;-85
2023/04/30 03:53:10;;;;;;;4.57;1.77;;;6.60;99.90;;;;;;4042724;29;20052;-86
2023/04/30 03:55:11;;;;;;;8.88;2.40;;;6.10;99.90;;;;;;4042943;29;20076;-85
2023/04/30 03:57:12;;;;;;;3.92;2.42;;;6.40;99.90;;;;;;4043353;29;20060;-85
2023/04/30 03:59:14;;;;;;;7.55;1.90;;;6.80;99.90;;;;;;4025748;29;20099;-85
2023/04/30 04:01:15;;;;;;;5.40;2.10;;;6.00;99.90;;;;;;4043398;29;20053;-85
2023/04/30 04:03:16;;;;;;;8.48;2.03;;;6.00;99.90;;;;;;4041830;29;20478;-85
2023/04/30 04:05:17;;;;;;;3.58;1.60;;;6.00;99.90;;;;;;4043766;29;20060;-85
2023/04/30 04:07:17;;;;;;;7.10;2.42;;;5.90;99.90;;;;;;4042483;29;20059;-85
2023/04/30 04:09:18;;;;;;;8.10;2.75;;;6.30;99.90;;;;;;4058729;29;20405;-86
2023/04/30 04:11:19;;;;;;;4.50;2.10;;;5.90;99.90;;;;;;4058242;29;20478;-85
2023/04/30 04:13:20;;;;;;;5.90;2.28;;;5.80;99.90;;;;;;4058154;29;20053;-85
2023/04/30 04:15:22;;;;;;;3.53;1.67;;;5.80;99.90;;;;;;4058566;29;20833;-85
2023/04/30 04:17:22;;;;;;;3.35;1.42;;;6.20;99.90;;;;;;4057298;29;20041;-85
2023/04/30 04:19:23;;;;;;;4.13;1.77;;;5.80;99.90;;;;;;4058795;29;20100;-85
2023/04/30 04:21:24;;;;;;;5.18;2.00;;;6.10;99.90;;;;;;4057345;29;20047;-85
2023/04/30 04:23:25;;;;;;;4.70;1.23;;;6.50;99.90;;;;;;4058864;29;20486;-85
2023/04/30 04:25:27;;;;;;;3.00;1.88;;;5.70;99.90;;;;;;4058224;29;20044;-85
2023/04/30 04:27:31;;;;;;;1.30;1.20;;;6.30;99.90;;;;;;4058240;29;20075;-86
2023/04/30 04:30:13;;;;;;;2.40;1.10;;;5.80;99.90;;;;;;4058891;29;20536;-86
2023/04/30 04:32:52;;;;;;;7.25;2.00;;;5.60;99.90;;;;;;4060775;29;20045;-85
2023/04/30 04:35:28;;;;;;;6.57;1.25;;;5.60;99.90;;;;;;4060390;29;20049;-85
2023/04/30 04:37:30;;;;;;;3.00;1.20;;;5.60;99.90;;;;;;4044206;29;20051;-85
2023/04/30 04:39:32;;;;;;;2.90;1.67;;;5.80;99.90;;;;;;4059455;29;20409;-85
2023/04/30 04:41:35;;;;;;;5.97;2.28;;;5.60;99.90;;;;;;4062761;29;20052;-83
2023/04/30 04:43:36;;;;;;;9.93;2.22;;;5.60;99.90;;;;;;4058439;29;20044;-85
2023/04/30 04:45:37;;;;;;;4.85;1.88;;;6.50;99.90;;;;;;4075110;29;20100;-85
2023/04/30 04:47:39;;;;;;;7.07;2.20;;;6.40;99.90;;;;;;4075078;29;20076;-85
2023/04/30 04:49:40;;;;;;;7.28;1.70;;;5.70;99.90;;;;;;4074967;29;20036;-85
2023/04/30 04:51:40;;;;;;;3.22;1.73;;;5.80;99.90;;;;;;4063756;29;20064;-84
2023/04/30 04:53:41;;;;;;;7.68;2.78;;;6.20;99.90;;;;;;4040529;29;20537;-85
2023/04/30 04:55:42;;;;;;;3.63;1.83;;;5.90;99.90;;;;;;4059045;29;20052;-84
2023/04/30 04:57:42;;;;;;;7.88;2.10;;;6.00;99.90;;;;;;4057289;29;20044;-84
2023/04/30 04:59:44;;;;;;;5.78;2.35;;;6.80;99.90;;;;;;4057255;29;20081;-84
2023/04/30 05:01:46;;;;;;;5.80;2.35;;;7.10;99.90;;;;;;4057138;29;20536;-84
2023/04/30 05:03:47;;;;;;;10.88;2.80;;;6.70;99.90;;;;;;4056467;29;20080;-84
2023/04/30 05:05:48;;;;;;;8.60;2.67;;;7.40;99.90;;;;;;4057031;29;20044;-84
2023/04/30 05:07:51;;;;;;;6.25;2.65;;;6.70;99.90;;;;;;4056160;29;20100;-84
2023/04/30 05:09:51;;;;;;;7.97;2.38;;;6.50;99.90;;;;;;4056331;29;20387;-84
2023/04/30 05:11:53;;;;;;;7.78;2.90;;;6.50;99.90;;;;;;4055880;29;20051;-84
2023/04/30 05:13:57;;;;;;;5.70;2.60;;;7.00;99.90;;;;;;4055493;29;20426;-84
2023/04/30 05:15:57;;;;;;;5.57;2.75;;;6.70;99.90;;;;;;4056514;29;20052;-84
2023/04/30 05:17:58;;;;;;;6.18;2.80;;;7.50;99.90;;;;;;4039079;29;20132;-85
2023/04/30 05:19:59;;;;;;;7.95;2.65;;;7.30;99.90;;;;;;4055752;29;20052;-85
2023/04/30 05:22:01;;;;;;;8.07;2.65;;;6.90;99.90;;;;;;4055594;29;20147;-85
2023/04/30 05:24:02;;;;;;;6.88;2.30;;;6.80;99.90;;;;;;4056096;29;20080;-85
2023/04/30 05:26:04;;;;;;;10.95;3.00;;;6.90;99.90;;;;;;4055141;29;20051;-85
2023/04/30 05:28:05;;;;;;;6.65;2.75;;;6.90;99.90;;;;;;4055556;29;20059;-85
2023/04/30 05:30:08;;;;;;;12.05;2.63;;;6.90;99.90;;;;;;4056145;29;20486;-85
2023/04/30 05:32:08;;;;;;;6.38;2.22;;;7.00;99.90;;;;;;4054796;29;20049;-84
2023/04/30 05:34:09;;;;;;;8.43;2.85;;;7.00;99.90;;;;;;4055549;29;20656;-85
2023/04/30 05:36:10;;;;;;;6.97;2.38;;;7.10;99.90;;;;;;4055019;29;20050;-84
2023/04/30 05:38:11;;;;;;;4.63;2.10;;;7.00;99.90;;;;;;4055117;29;20044;-84
2023/04/30 05:40:18;;;;;;;6.40;2.47;;;7.70;99.90;;;;;;4054824;29;20048;-85
2023/04/30 05:42:19;;;;;;;6.95;2.63;;;7.10;99.90;;;;;;4038641;29;20045;-85
2023/04/30 05:44:20;;;;;;;8.43;2.55;;;7.10;99.90;;;;;;4055804;29;20056;-84
2023/04/30 05:46:22;;;;;;;7.70;2.47;;;8.00;99.90;;;;;;4036538;29;20054;-84
2023/04/30 05:48:23;;;;;;;12.45;3.30;;;7.50;99.90;;;;;;4055633;29;20048;-84
2023/04/30 05:50:23;;;;;;;12.60;3.88;;;8.00;99.90;;;;;;4044792;29;20049;-83
2023/04/30 05:52:24;;;;;;;8.00;3.53;;;8.00;99.90;;;;;;4040966;29;20053;-83
2023/04/30 05:54:27;;;;;;;14.15;3.15;;;7.50;99.90;;;;;;4042053;29;20124;-84
2023/04/30 05:56:30;;;;;;;7.95;3.20;;;7.50;99.90;;;;;;4039907;29;20473;-84
2023/04/30 05:58:31;;;;;;;9.98;3.55;;;7.60;99.90;;;;;;4041044;29;20132;-84
2023/04/30 06:00:34;;;;;;;9.45;3.65;;;8.30;99.90;;;;;;4039906;29;20065;-84
2023/04/30 06:02:35;;;;;;;10.45;3.20;;;8.00;99.90;;;;;;4050369;29;20845;-85
2023/04/30 06:04:36;;;;;;;11.00;3.13;;;7.80;99.90;;;;;;4053255;29;20052;-84
2023/04/30 06:06:36;;;;;;;11.18;3.25;;;7.80;99.90;;;;;;4067901;29;20052;-84
2023/04/30 06:08:40;;;;;;;8.25;2.90;;;7.90;99.90;;;;;;4052653;29;20049;-84
2023/04/30 06:10:41;;;;;;;8.48;2.55;;;7.90;99.90;;;;;;4055840;29;20048;-84
2023/04/30 06:12:42;;;;;;;10.77;2.30;;;8.40;99.90;;;;;;4055963;29;20411;-84
2023/04/30 06:14:44;;;;;;;10.15;2.67;;;8.00;99.90;;;;;;4038635;29;20057;-83
2023/04/30 06:16:45;;;;;;;8.93;3.92;;;8.10;99.90;;;;;;4055510;29;20864;-84
2023/04/30 06:18:46;;;;;;;12.57;3.25;;;8.10;99.90;;;;;;4054775;29;20082;-84
2023/04/30 06:20:47;;;;;;;9.45;2.67;;;8.20;99.90;;;;;;4055984;29;20053;-84
2023/04/30 06:22:48;;;;;;;7.88;2.70;;;8.30;99.90;;;;;;4055523;29;20128;-83
2023/04/30 06:24:49;;;;;;;11.77;3.00;;;8.40;99.90;;;;;;4055619;29;20052;-83
2023/04/30 06:26:50;;;;;;;8.88;2.42;;;8.50;99.90;;;;;;4055011;29;20056;-83
2023/04/30 06:28:50;;;;;;;8.60;2.95;;;8.50;99.90;;;;;;4038602;29;20049;-83
2023/04/30 06:30:53;;;;;;;9.73;2.03;;;8.60;99.90;;;;;;4055281;29;20077;-83
2023/04/30 06:32:54;;;;;;;5.45;1.67;;;8.60;99.90;;;;;;4054386;29;20111;-83
2023/04/30 06:34:55;;;;;;;7.82;1.95;;;8.60;99.90;;;;;;4038613;29;20060;-82
2023/04/30 06:36:55;;;;;;;10.65;2.10;;;8.70;99.90;;;;;;4054560;29;20044;-82
2023/04/30 06:38:56;;;;;;;7.57;2.28;;;8.70;99.90;;;;;;4055064;29;20040;-84
2023/04/30 06:40:57;;;;;;;9.60;2.10;;;8.70;99.90;;;;;;4038231;29;20522;-83
2023/04/30 06:42:58;;;;;;;6.95;2.60;;;8.70;99.90;;;;;;4038080;29;20080;-83
2023/04/30 06:45:02;;;;;;;13.57;2.83;;;8.80;99.90;;;;;;4054360;29;20130;-84
2023/04/30 06:47:02;;;;;;;8.35;2.35;;;8.80;99.90;;;;;;4054496;29;20052;-83
2023/04/30 06:49:03;;;;;;;8.57;1.90;;;8.80;99.90;;;;;;4056022;29;20132;-84
2023/04/30 06:51:05;;;;;;;10.05;1.88;;;8.90;99.90;;;;;;4054050;29;20062;-83
2023/04/30 06:53:05;;;;;;;7.70;2.00;;;8.90;99.90;;;;;;4055263;29;20076;-83
2023/04/30 06:55:08;;;;;;;8.57;2.55;;;8.90;99.90;;;;;;4037817;29;20064;-83
2023/04/30 06:57:08;;;;;;;10.48;2.85;;;8.90;99.90;;;;;;4054843;29;20418;-83
2023/04/30 06:59:09;;;;;;;7.78;2.60;;;9.00;99.90;;;;;;4054561;29;20052;-83
2023/04/30 07:01:10;;;;;;;9.93;1.90;;;9.10;99.90;;;;;;4049382;29;20128;-84
2023/04/30 07:03:11;;;;;;;8.43;2.55;;;9.10;99.90;;;;;;4043983;29;20052;-83
2023/04/30 07:05:12;;;;;;;4.97;1.92;;;9.20;99.90;;;;;;4038184;29;20041;-83
2023/04/30 07:07:13;;;;;;;6.60;1.98;;;9.40;99.90;;;;;;4039528;29;20105;-83
2023/04/30 07:09:14;;;;;;;4.80;1.70;;;9.50;99.90;;;;;;4043052;29;20049;-84
2023/04/30 07:11:15;;;;;;;12.25;2.88;;;9.60;99.90;;;;;;4054220;29;20127;-84
2023/04/30 07:13:16;;;;;;;6.95;2.22;;;9.60;99.90;;;;;;4053858;29;20092;-84
2023/04/30 07:15:17;;;;;;;7.15;1.90;;;9.60;99.90;;;;;;4054058;29;20123;-84
2023/04/30 07:17:17;;;;;;;5.82;1.65;;;9.60;99.90;;;;;;4054106;29;20048;-85
2023/04/30 07:19:18;;;;;;;6.97;1.60;;;9.80;99.90;;;;;;4053895;29;20455;-85
2023/04/30 07:21:20;;;;;;;8.07;1.75;;;9.90;99.90;;;;;;4037867;29;20170;-85
2023/04/30 07:23:21;;;;;;;5.05;2.20;;;10.10;99.90;;;;;;4053154;29;20426;-84
2023/04/30 07:25:22;;;;;;;9.20;2.22;;;10.20;99.90;;;;;;4054705;29;20044;-84
2023/04/30 07:27:24;;;;;;;6.47;1.70;;;10.20;99.90;;;;;;4053931;29;20051;-84
2023/04/30 07:29:24;;;;;;;7.85;1.40;;;10.10;99.90;;;;;;4053870;29;20108;-84
2023/04/30 07:31:25;;;;;;;11.90;1.80;;;10.20;99.90;;;;;;4054223;29;20053;-84
2023/04/30 07:33:27;;;;;;;11.75;1.50;;;10.40;99.90;;;;;;4054090;29;20386;-84
2023/04/30 07:35:27;;;;;;;6.55;2.03;;;10.80;99.90;;;;;;4054654;29;20496;-83
2023/04/30 07:37:34;;;;;;;11.45;1.80;;;11.00;99.90;;;;;;4036689;29;20049;-84
2023/04/30 07:39:36;;;;;;;4.97;1.50;;;11.10;99.90;;;;;;4054541;29;20076;-84
2023/04/30 07:41:36;;;;;;;9.35;1.75;;;11.30;99.90;;;;;;4055405;29;20096;-84
2023/04/30 07:43:38;;;;;;;10.10;1.80;;;11.30;99.90;;;;;;4054809;29;20131;-83
2023/04/30 07:45:41;;;;;;;8.00;1.77;;;11.30;99.90;;;;;;4055906;29;20044;-84
2023/04/30 07:47:42;;;;;;;12.27;2.58;;;11.40;99.90;;;;;;4056204;29;20061;-84
2023/04/30 07:49:42;;;;;;;12.30;2.75;;;11.50;99.90;;;;;;4056658;29;20125;-84
2023/04/30 07:51:43;;;;;;;7.30;1.98;;;11.40;99.90;;;;;;4054190;29;20055;-84
2023/04/30 07:53:44;;;;;;;7.53;1.85;;;11.50;99.90;;;;;;4056412;29;20084;-84
2023/04/30 07:55:45;;;;;;;7.75;2.13;;;11.60;99.90;;;;;;4055254;29;20083;-84
2023/04/30 07:57:46;;;;;;;9.18;1.45;;;11.70;99.90;;;;;;4051491;29;20045;-84
2023/04/30 07:59:46;;;;;;;4.75;1.20;;;11.70;99.90;;;;;;4039918;29;20101;-83
2023/04/30 08:01:47;;;;;;;8.95;1.73;;;11.70;99.90;;;;;;4039291;29;20045;-84
2023/04/30 08:03:48;;;;;;;8.52;1.65;;;11.80;99.90;;;;;;4040326;29;20507;-84
2023/04/30 08:05:56;;;;;;;13.15;2.35;;;12.00;99.90;;;;;;4039110;29;20114;-84
2023/04/30 08:07:57;;;;;;;8.00;1.80;;;12.20;99.90;;;;;;4039430;29;20055;-84
2023/04/30 08:09:58;;;;;;;5.00;1.30;;;12.20;99.90;;;;;;4023572;29;20240;-84
2023/04/30 08:11:58;;;;;;;7.07;1.83;;;12.30;99.90;;;;;;4042936;29;20053;-84
2023/04/30 08:13:59;;;;;;;11.23;1.55;;;12.20;99.90;;;;;;4042605;29;20053;-83
2023/04/30 08:16:00;;;;;;;8.48;1.30;;;12.30;99.90;;;;;;4042967;29;20045;-84
2023/04/30 08:18:01;;;;;;;8.95;2.20;;;12.30;99.90;;;;;;4042326;29;20053;-83
2023/04/30 08:20:05;;;;;;;8.43;1.77;;;12.30;99.90;;;;;;4041701;29;20418;-84
2023/04/30 08:22:05;;;;;;;8.73;1.98;;;12.30;99.90;;;;;;4025567;29;20053;-83
2023/04/30 08:24:06;;;;;;;8.80;2.15;;;12.30;99.90;;;;;;4026090;29;20093;-83
2023/04/30 08:26:07;;;;;;;10.43;2.45;;;12.30;99.90;;;;;;4041474;29;20044;-84
2023/04/30 08:28:08;;;;;;;9.50;1.88;;;12.40;99.90;;;;;;4040996;29;20036;-84
2023/04/30 08:30:08;;;;;;;10.68;1.70;;;12.30;99.90;;;;;;4040281;29;20463;-84
2023/04/30 08:32:09;;;;;;;4.28;1.27;;;12.40;99.90;;;;;;4023560;29;20061;-84
2023/04/30 08:34:11;;;;;;;8.20;1.77;;;12.60;99.90;;;;;;4022917;29;20085;-84
2023/04/30 08:36:12;;;;;;;5.45;1.67;;;12.70;99.90;;;;;;4040461;29;20536;-84
2023/04/30 08:38:13;;;;;;;10.00;1.90;;;12.80;99.90;;;;;;4041063;29;20041;-84
2023/04/30 08:40:15;;;;;;;6.97;1.88;;;12.80;99.90;;;;;;4008270;29;20124;-84
2023/04/30 08:42:17;;;;;;;7.13;1.40;;;12.70;99.90;;;;;;4040691;29;20064;-84
2023/04/30 08:44:20;;;;;;;11.75;2.15;;;12.70;99.90;;;;;;4039863;29;20045;-84
2023/04/30 08:46:23;;;;;;;6.80;1.95;;;12.80;99.90;;;;;;4040490;29;20100;-84
2023/04/30 08:48:25;;;;;;;6.80;1.63;;;12.90;99.90;;;;;;4023283;29;20438;-84
2023/04/30 08:50:30;;;;;;;6.50;1.45;;;12.90;99.90;;;;;;4023578;29;20081;-85
2023/04/30 08:52:34;;;;;;;4.63;1.27;;;12.90;99.90;;;;;;4040118;29;20103;-84
2023/04/30 08:54:36;;;;;;;11.68;2.20;;;12.70;99.90;;;;;;4039956;29;20045;-84
2023/04/30 08:56:37;;;;;;;7.68;1.40;;;12.80;99.90;;;;;;4040544;29;20049;-84
2023/04/30 08:58:43;;;;;;;7.13;1.50;;;12.80;99.90;;;;;;4051138;29;20048;-85
2023/04/30 09:00:44;;;;;;;8.10;1.60;;;12.80;99.90;;;;;;4055002;29;20080;-84
2023/04/30 09:02:47;;;;;;;6.22;1.20;;;12.80;99.90;;;;;;4055061;29;20493;-84
2023/04/30 09:04:48;;;;;;;4.78;1.30;;;12.90;99.90;;;;;;4054685;29;20057;-84
2023/04/30 09:06:52;;;;;;;6.47;1.65;;;12.80;99.90;;;;;;4054919;29;20100;-84
2023/04/30 09:08:53;;;;;;;10.43;2.28;;;12.70;99.90;;;;;;4041654;29;20076;-83
2023/04/30 09:10:54;;;;;;;8.07;1.63;;;12.80;99.90;;;;;;4023159;29;20054;-84
2023/04/30 09:13:00;;;;;;;11.43;2.25;;;12.80;99.90;;;;;;4038643;29;20463;-83
2023/04/30 09:15:03;;;;;;;6.18;1.40;;;12.90;99.90;;;;;;4038823;29;20052;-84
2023/04/30 09:17:05;;;;;;;8.80;1.73;;;13.00;99.90;;;;;;4039078;29;20057;-84
2023/04/30 09:19:06;;;;;;;8.32;1.40;;;13.10;99.90;;;;;;4038753;29;20076;-83
2023/04/30 09:21:07;;;;;;;8.07;2.30;;;13.10;99.90;;;;;;4039768;29;20254;-83
2023/04/30 09:23:10;;;;;;;7.53;2.03;;;13.20;99.90;;;;;;4038930;29;20049;-83
2023/04/30 09:25:10;;;;;;;8.65;1.83;;;13.30;99.90;;;;;;4039499;29;20489;-83
2023/04/30 09:27:16;;;;;;;5.10;1.30;;;;;;;;;;4039331;29;20112;-83
2023/04/30 09:29:17;;;;;;;7.13;1.40;;;;;;;;;;4022311;29;20049;-83
2023/04/30 09:31:21;;;;;;;4.57;1.30;;;;;;;;;;4038970;29;20469;-84
2023/04/30 09:33:22;;;;;;;7.20;1.73;;;;;;;;;;4037489;29;20045;-84
2023/04/30 09:35:30;;;;;;;5.88;1.95;;;;;;;;;;4039388;29;20430;-84
2023/04/30 09:37:37;;;;;;;7.88;1.77;;;;;;;;;;4039396;29;20052;-84
2023/04/30 09:39:51;;;;;;;6.82;1.50;;;;;;;;;;4037531;29;20060;-84
2023/04/30 09:42:07;;;;;;;5.18;1.50;;;;;;;;;;4039299;29;20491;-84
2023/04/30 09:44:08;;;;;;;5.03;1.75;;;;;;;;;;4039188;29;20123;-84
2023/04/30 09:46:09;;;;;;;5.82;1.30;;;;;;;;;;4038019;29;20045;-84
2023/04/30 09:48:10;;;;;;;5.25;2.10;;;;;;;;;;4039021;29;20128;-83
2023/04/30 09:50:13;;;;;;;5.55;1.50;;;;;;;;;;4039776;29;20069;-84
2023/04/30 09:52:15;;;;;;;8.57;2.10;;;;;;;;;;4044053;29;20438;-84
2023/04/30 09:54:17;;;;;;;4.75;1.73;;;;;;;;;;4037834;29;20128;-84
2023/04/30 09:56:23;;;;;;;5.95;1.38;;;;;;;;;;4053748;29;20119;-84
2023/04/30 09:58:27;;;;;;;5.55;1.40;;;;;;;;;;4054239;29;20044;-84
2023/04/30 10:00:30;;;;;;;6.43;1.88;;;;;;;;;;4053311;29;20104;-84
2023/04/30 10:02:32;;;;;;;7.10;1.63;;;;;;;;;;4054463;29;20080;-84
2023/04/30 10:04:35;;;;;;;6.63;2.05;;;;;;;;;;4054468;29;20513;-84
2023/04/30 10:06:36;;;;;;;5.90;1.60;;;;;;;;;;4053999;29;20116;-84
2023/04/30 10:08:41;;;;;;;6.72;1.60;;;;;;;;;;4037010;29;20060;-84
2023/04/30 10:10:44;;;;;;;3.03;1.63;;;;;;;;;;4053641;29;20084;-85
2023/04/30 10:12:50;;;;;;;6.05;1.55;;;;;;;;;;4054262;29;20044;-84
2023/04/30 10:14:57;;;;;;;6.50;1.92;;;;;;;;;;4054301;29;20520;-84
2023/04/30 10:16:59;;;;;;;7.97;1.73;;;;;;;;;;4038120;29;20566;-85
2023/04/30 10:19:03;;;;;;;7.68;1.52;;;;;;;;;;4054858;29;20055;-84
2023/04/30 10:21:11;;;;;;;5.72;1.45;;;;;;;;;;4054620;29;20032;-84
2023/04/30 10:23:12;;;;;;;6.03;1.30;;;;;;;;;;4054611;29;20060;-84
2023/04/30 10:25:13;;;;;;;6.07;1.50;;;;;;;;;;4054208;29;20044;-85
2023/04/30 10:27:14;;;;;;;4.72;1.77;;;;;;;;;;4053584;29;20051;-85
2023/04/30 10:29:16;;;;;;;10.65;2.13;;;;;;;;;;4054322;29;20044;-85
2023/04/30 10:31:19;;;;;;;7.07;1.23;;;;;;;;;;4053562;29;20461;-85
2023/04/30 10:33:34;;;;;;;5.03;1.30;;;;;;;;;;4053618;29;20076;-85
2023/04/30 10:35:43;;;;;;;7.00;1.55;;;;;;;;;;4053851;29;20055;-84
2023/04/30 10:37:44;;;;;;;;;;;;;;;;;;4053859;29;20048;-85
2023/04/30 10:39:45;;;;;;;8.80;1.50;;;;;;;;;;4053906;29;20432;-85
2023/04/30 10:41:48;;;;;;;4.07;1.92;;;;;;;;;;4036918;29;20502;-85
2023/04/30 10:43:49;;;;;;;5.03;1.60;;;;;;;;;;4053405;29;20044;-85
2023/04/30 10:45:50;;;;;;;7.80;1.60;;;;;;;;;;4053958;29;20569;-85
2023/04/30 10:47:55;;;;;;;7.85;1.73;;;;;;;;;;4036446;29;20124;-85
2023/04/30 10:50:09;;;;;;;7.03;2.45;;;;;;;;;;4053948;29;20123;-85
2023/04/30 10:52:10;;;;;;;6.47;2.05;;;;;;;;;;4053895;29;20137;-85
2023/04/30 10:54:16;;;;;;;4.47;1.27;;;;;;;;;;4052799;29;20049;-85
2023/04/30 10:56:31;;;;;;;7.15;1.65;;;;;;;;;;4053493;29;20076;-85
2023/04/30 10:58:33;;;;;;;8.80;1.85;;;;;;;;;;4052851;29;20055;-85
2023/04/30 11:00:35;;;;;;;3.70;1.35;;;;;;;;;;4052609;29;20570;-85